SSS Odyssey — WCZ2180 — position and weather

sailwx.info

Track history (hours):
 
Tides and Currents Weather Stations Pressure Air Temp Water Temp Dewpoint Dewpoint Depression Visibility Wind Speed Wind Dir Waves Ship Positions

SSS Odyssey

Ship's website: http://www.sssodyssey.org

Owner: Pacific Harbors Council, BSA, TACOMA, WA. More information available from US FCC via Universal Licensing System and Coast Guard Vessel Documentation Center.

Last reported at 2017-Aug-16 09:26 UTC. Time now 2017-Aug-17 03:47 UTC.
Position N 48°46' W 122°54'.

Length 30 m; draft 4 m.

Type: Ship. MMSI: 367404790.

Date/timePositionNaut miles runAvg speedWind from/ knotsBaromVisibWave heightAir tempDewpointWater temp
2017-Aug-16 09:26N 48°46' W 122°54'0 0.0
2017-Aug-15 22:30N 48°46' W 122°54'1 2.1
2017-Aug-15 21:56N 48°44' W 122°54'2 5.5
2017-Aug-15 21:30N 48°43' W 122°57'3 5.3
2017-Aug-15 21:00N 48°41' W 122°60'2 4.0
2017-Aug-15 20:30N 48°40' W 123°02'1 2.1
2017-Aug-15 20:00N 48°39' W 123°03'0 0.6
2017-Aug-15 19:30N 48°39' W 123°03'0 0.8
2017-Aug-15 19:00N 48°39' W 123°03'0 0.6
2017-Aug-15 18:29N 48°38' W 123°04'0 1.0
2017-Aug-15 18:00N 48°38' W 123°05'2 3.3
2017-Aug-15 17:30N 48°38' W 123°07'2 4.6
2017-Aug-15 17:00N 48°37' W 123°10'1 1.2
2017-Aug-15 16:30N 48°37' W 123°09'0 0.1
2017-Aug-15 16:00N 48°37' W 123°09'0 0.5
2017-Aug-15 15:30N 48°37' W 123°10'0 0.4
2017-Aug-15 14:58N 48°37' W 123°10'0 0.0
2017-Aug-15 14:22N 48°37' W 123°10'0 0.0
2017-Aug-15 13:58N 48°37' W 123°10'0 0.0
2017-Aug-15 13:25N 48°37' W 123°10'0 0.0
2017-Aug-15 12:58N 48°37' W 123°10'0 0.0
2017-Aug-15 12:28N 48°37' W 123°10'0 0.0
2017-Aug-15 11:55N 48°37' W 123°10'0 0.0
2017-Aug-15 11:25N 48°37' W 123°10'0 0.0
2017-Aug-15 10:58N 48°37' W 123°10'0 0.0
2017-Aug-15 10:28N 48°37' W 123°10'0 0.0
2017-Aug-15 09:49N 48°37' W 123°10'0 0.0
2017-Aug-15 09:28N 48°37' W 123°10'0 0.0
2017-Aug-15 08:58N 48°37' W 123°10'0 0.0
2017-Aug-15 08:25N 48°37' W 123°10'0 0.0
2017-Aug-15 07:58N 48°37' W 123°10'0 0.0
2017-Aug-15 07:19N 48°37' W 123°10'0 0.0
2017-Aug-15 06:52N 48°37' W 123°10'0 0.0
2017-Aug-15 06:23N 48°37' W 123°10'0 0.0
2017-Aug-15 05:58N 48°37' W 123°10'0 0.0
2017-Aug-15 05:26N 48°37' W 123°10'0 0.0
2017-Aug-15 04:55N 48°37' W 123°10'0 0.0
2017-Aug-15 04:13N 48°37' W 123°10'0 0.0
2017-Aug-15 03:55N 48°37' W 123°10'0 0.0
2017-Aug-15 03:25N 48°37' W 123°10'0 0.0
2017-Aug-15 02:58N 48°37' W 123°10'0 0.0
2017-Aug-15 02:25N 48°37' W 123°10'0 0.0
2017-Aug-15 01:58N 48°37' W 123°10'0 0.0
2017-Aug-15 01:22N 48°37' W 123°10'0 0.0
2017-Aug-15 00:55N 48°37' W 123°10'0 0.0
2017-Aug-15 00:28N 48°37' W 123°10'0 0.0
2017-Aug-14 23:58N 48°37' W 123°10'0 0.0
2017-Aug-14 23:28N 48°37' W 123°10'0 0.0
2017-Aug-14 22:58N 48°37' W 123°10'0 0.0
2017-Aug-14 22:28N 48°37' W 123°10'0 0.0
2017-Aug-14 21:58N 48°37' W 123°10'0 0.9
2017-Aug-14 21:30N 48°37' W 123°10'2 3.6
2017-Aug-14 21:00N 48°36' W 123°12'2 3.9
2017-Aug-14 20:30N 48°34' W 123°12'3 5.2
2017-Aug-14 20:00N 48°31' W 123°12'1 1.6
2017-Aug-14 19:30N 48°30' W 123°12'2 3.5
2017-Aug-14 19:00N 48°32' W 123°11'2 4.3
2017-Aug-14 18:30N 48°34' W 123°13'1 2.5
2017-Aug-14 18:00N 48°35' W 123°14'1 2.2
2017-Aug-14 17:30N 48°36' W 123°13'1 2.2
2017-Aug-14 17:00N 48°37' W 123°12'2 4.0
2017-Aug-14 16:30N 48°39' W 123°12'2 3.0
2017-Aug-14 15:58N 48°40' W 123°11'0 0.2
2017-Aug-14 14:32N 48°40' W 123°12'0 0.1
2017-Aug-14 14:26N 48°40' W 123°12'0 0.0
2017-Aug-14 13:45N 48°40' W 123°12'0 0.0
2017-Aug-14 13:09N 48°40' W 123°12'0 0.0
2017-Aug-14 12:39N 48°40' W 123°12'0 0.0
2017-Aug-14 10:33N 48°40' W 123°12'0 0.0
2017-Aug-14 09:06N 48°40' W 123°12'0 0.0
2017-Aug-14 08:51N 48°40' W 123°12'0 0.0
2017-Aug-14 08:27N 48°40' W 123°12'0 0.0
2017-Aug-14 01:33N 48°40' W 123°12'0 0.0
2017-Aug-13 23:45N 48°40' W 123°12'0 0.0
2017-Aug-13 23:27N 48°40' W 123°12'0 0.0
2017-Aug-13 22:45N 48°40' W 123°12'0 0.0
2017-Aug-13 22:27N 48°40' W 123°12'0 0.0
2017-Aug-13 21:57N 48°40' W 123°12'2 5.3
2017-Aug-13 21:31N 48°39' W 123°09'4 7.1
2017-Aug-13 21:01N 48°37' W 123°05'3 6.2
2017-Aug-13 20:30N 48°35' W 123°02'2 4.7
2017-Aug-13 20:01N 48°32' W 123°01'0 0.3
2017-Aug-13 19:28N 48°32' W 123°01'0 0.0
2017-Aug-13 18:58N 48°32' W 123°01'0 0.0
2017-Aug-13 18:28N 48°32' W 123°01'0 0.0
2017-Aug-13 17:55N 48°32' W 123°01'0 0.0
2017-Aug-13 17:28N 48°32' W 123°01'0 0.0
2017-Aug-13 16:58N 48°32' W 123°01'0 0.0
2017-Aug-13 16:28N 48°32' W 123°01'0 0.0
2017-Aug-13 15:58N 48°32' W 123°01'0 0.0
2017-Aug-13 15:28N 48°32' W 123°01'0 0.0
2017-Aug-13 14:58N 48°32' W 123°01'0 0.0
2017-Aug-13 14:28N 48°32' W 123°01'0 0.0
2017-Aug-13 13:58N 48°32' W 123°01'0 0.0
2017-Aug-13 13:25N 48°32' W 123°01'0 0.0
2017-Aug-13 12:58N 48°32' W 123°01'0 0.0
2017-Aug-13 12:28N 48°32' W 123°01'0 0.0
2017-Aug-13 11:58N 48°32' W 123°01'0 0.0
2017-Aug-13 11:25N 48°32' W 123°01'0 0.0
2017-Aug-13 10:58N 48°32' W 123°01'0 0.0
2017-Aug-13 10:28N 48°32' W 123°01'0 0.0
2017-Aug-13 09:58N 48°32' W 123°01'0 0.0
2017-Aug-13 09:28N 48°32' W 123°01'0 0.0
2017-Aug-13 08:55N 48°32' W 123°01'0 0.0
2017-Aug-13 08:28N 48°32' W 123°01'0 0.0
2017-Aug-13 07:58N 48°32' W 123°01'0 0.0
2017-Aug-13 07:28N 48°32' W 123°01'0 0.0
2017-Aug-13 06:58N 48°32' W 123°01'0 0.0
2017-Aug-13 06:25N 48°32' W 123°01'0 0.0
2017-Aug-13 05:55N 48°32' W 123°01'0 0.0
2017-Aug-13 05:28N 48°32' W 123°01'0 0.0
2017-Aug-13 04:58N 48°32' W 123°01'0 0.0
2017-Aug-13 04:28N 48°32' W 123°01'0 0.0
2017-Aug-13 03:58N 48°32' W 123°01'0 0.0
2017-Aug-13 03:28N 48°32' W 123°01'0 0.0
2017-Aug-13 02:58N 48°32' W 123°01'0 0.0
2017-Aug-13 02:28N 48°32' W 123°01'0 0.0
2017-Aug-13 01:55N 48°32' W 123°01'0 0.0
2017-Aug-13 01:28N 48°32' W 123°01'0 0.0
2017-Aug-13 00:58N 48°32' W 123°01'0 0.0
2017-Aug-13 00:28N 48°32' W 123°01'0 0.0
2017-Aug-12 23:58N 48°32' W 123°01'0 0.0
2017-Aug-12 23:28N 48°32' W 123°01'0 0.0
2017-Aug-12 22:58N 48°32' W 123°01'0 0.0
2017-Aug-12 22:28N 48°32' W 123°01'0 0.0
2017-Aug-12 21:58N 48°32' W 123°01'0 0.0
2017-Aug-12 21:28N 48°32' W 123°01'0 0.0
2017-Aug-12 20:52N 48°32' W 123°01'0 0.0
2017-Aug-12 20:28N 48°32' W 123°01'0 0.0
2017-Aug-12 19:58N 48°32' W 123°01'0 0.0
2017-Aug-12 19:25N 48°32' W 123°01'0 0.0
2017-Aug-12 18:58N 48°32' W 123°01'0 0.0
2017-Aug-12 18:28N 48°32' W 123°01'0 0.0
2017-Aug-12 17:58N 48°32' W 123°01'0 0.1
2017-Aug-12 17:30N 48°32' W 123°01'0 0.1
2017-Aug-12 16:59N 48°32' W 123°01'0 0.0
2017-Aug-12 16:30N 48°32' W 123°01'0 0.0
2017-Aug-12 16:00N 48°32' W 123°01'1 1.3
2017-Aug-12 15:30N 48°33' W 123°00'3 6.8
2017-Aug-12 15:00N 48°36' W 123°03'2 4.2
2017-Aug-12 14:29N 48°37' W 123°00'0 0.0
2017-Aug-12 13:59N 48°37' W 123°00'0 0.0
2017-Aug-12 13:29N 48°37' W 123°00'0 0.0
2017-Aug-12 12:59N 48°37' W 123°00'0 0.0
2017-Aug-12 12:29N 48°37' W 123°00'0 0.0
2017-Aug-12 11:59N 48°37' W 123°00'0 0.0
2017-Aug-12 11:29N 48°37' W 123°00'0 0.0
2017-Aug-12 10:59N 48°37' W 123°00'0 0.0
2017-Aug-12 10:23N 48°37' W 123°00'0 0.0
2017-Aug-12 09:59N 48°37' W 123°00'0 0.0
2017-Aug-12 09:29N 48°37' W 123°00'0 0.0
2017-Aug-12 08:59N 48°37' W 123°00'0 0.0
2017-Aug-12 08:29N 48°37' W 123°00'0 0.0
2017-Aug-12 07:59N 48°37' W 123°00'0 0.0
2017-Aug-12 07:26N 48°37' W 123°00'0 0.0
2017-Aug-12 06:59N 48°37' W 123°00'0 0.0
2017-Aug-12 06:29N 48°37' W 123°00'0 0.0
2017-Aug-12 05:59N 48°37' W 123°00'0 0.0
2017-Aug-12 05:29N 48°37' W 123°00'0 0.0
2017-Aug-12 04:59N 48°37' W 123°00'0 0.0
2017-Aug-12 04:29N 48°37' W 123°00'0 0.0
2017-Aug-12 03:59N 48°37' W 123°00'0 0.0
2017-Aug-12 03:20N 48°37' W 123°00'0 0.0
2017-Aug-12 02:56N 48°37' W 123°00'0 0.0
2017-Aug-12 02:29N 48°37' W 123°00'0 0.0
2017-Aug-12 01:53N 48°37' W 123°00'0 0.0
2017-Aug-12 01:29N 48°37' W 123°00'0 0.0
2017-Aug-12 00:59N 48°37' W 123°00'0 0.0
2017-Aug-12 00:28N 48°37' W 123°00'1 2.2
2017-Aug-12 00:01N 48°36' W 123°02'3 5.0
2017-Aug-11 23:31N 48°38' W 123°05'2 4.8
2017-Aug-11 23:01N 48°40' W 123°07'1 2.0
2017-Aug-11 22:31N 48°41' W 123°07'1 1.9
2017-Aug-11 22:01N 48°42' W 123°08'2 3.1
2017-Aug-11 21:30N 48°41' W 123°10'2 4.2
2017-Aug-11 21:00N 48°41' W 123°13'2 4.7
2017-Aug-11 20:31N 48°39' W 123°11'1 1.5
2017-Aug-11 19:58N 48°40' W 123°11'0 0.0
2017-Aug-11 19:25N 48°40' W 123°11'0 0.0
2017-Aug-11 17:13N 48°40' W 123°11'0 0.0
2017-Aug-11 16:55N 48°40' W 123°11'0 0.0
2017-Aug-11 16:19N 48°40' W 123°11'0 0.0
2017-Aug-11 15:52N 48°40' W 123°11'0 0.0
2017-Aug-11 15:25N 48°40' W 123°11'0 0.0
2017-Aug-11 14:52N 48°40' W 123°11'0 0.1
2017-Aug-11 14:28N 48°40' W 123°11'0 0.0
2017-Aug-11 13:25N 48°40' W 123°11'0 0.1
2017-Aug-11 12:52N 48°40' W 123°11'0 0.1
2017-Aug-11 12:28N 48°40' W 123°11'0 0.0
2017-Aug-11 11:46N 48°40' W 123°11'0 0.0
2017-Aug-11 11:25N 48°40' W 123°11'0 0.0
2017-Aug-11 10:55N 48°40' W 123°11'0 0.0
2017-Aug-11 10:07N 48°40' W 123°11'0 0.0
2017-Aug-11 09:55N 48°40' W 123°11'0 0.0
2017-Aug-11 09:28N 48°40' W 123°11'0 0.0
2017-Aug-11 08:58N 48°40' W 123°11'0 0.0
2017-Aug-11 08:28N 48°40' W 123°11'0 0.0
2017-Aug-11 07:49N 48°40' W 123°11'0 0.0
2017-Aug-11 06:31N 48°40' W 123°11'0 0.0
2017-Aug-11 04:13N 48°40' W 123°11'0 0.0
2017-Aug-11 03:53N 48°40' W 123°11'0 0.0
2017-Aug-10 23:26N 48°40' W 123°11'1 1.8
2017-Aug-10 23:00N 48°40' W 123°11'1 2.5
2017-Aug-10 22:31N 48°39' W 123°12'2 3.2
2017-Aug-10 22:00N 48°37' W 123°12'4 7.8
2017-Aug-10 21:30N 48°33' W 123°11'3 6.5
2017-Aug-10 21:00N 48°30' W 123°09'3 5.3
2017-Aug-10 20:30N 48°28' W 123°06'2 3.5
2017-Aug-10 20:00N 48°27' W 123°04'0 0.8
2017-Aug-10 19:30N 48°27' W 123°05'0 0.8
2017-Aug-10 19:00N 48°27' W 123°04'1 1.1
2017-Aug-10 18:30N 48°27' W 123°03'1 2.8
2017-Aug-10 18:00N 48°27' W 123°05'2 4.2
2017-Aug-10 17:30N 48°29' W 123°07'2 4.5
2017-Aug-10 17:00N 48°29' W 123°10'2 3.3
2017-Aug-10 16:30N 48°30' W 123°12'2 4.8
2017-Aug-10 16:00N 48°32' W 123°10'3 6.3
2017-Aug-10 15:30N 48°36' W 123°11'1 2.2
2017-Aug-10 14:59N 48°37' W 123°10'0 0.0
2017-Aug-10 14:29N 48°37' W 123°10'0 0.0
2017-Aug-10 13:56N 48°37' W 123°10'0 0.0
2017-Aug-10 13:26N 48°37' W 123°10'0 0.0
2017-Aug-10 12:59N 48°37' W 123°10'0 0.0
2017-Aug-10 12:26N 48°37' W 123°10'0 0.0
2017-Aug-10 11:59N 48°37' W 123°10'0 0.0
2017-Aug-10 11:29N 48°37' W 123°10'0 0.0
2017-Aug-10 10:50N 48°37' W 123°10'0 0.0
2017-Aug-10 10:26N 48°37' W 123°10'0 0.0
2017-Aug-10 09:59N 48°37' W 123°10'0 0.0
2017-Aug-10 09:26N 48°37' W 123°10'0 0.0
2017-Aug-10 08:59N 48°37' W 123°10'0 0.0
2017-Aug-10 08:29N 48°37' W 123°10'0 0.0
2017-Aug-10 07:59N 48°37' W 123°10'0 0.0
2017-Aug-10 07:23N 48°37' W 123°10'0 0.0
2017-Aug-10 06:59N 48°37' W 123°10'0 0.0
2017-Aug-10 06:11N 48°37' W 123°10'0 0.0
2017-Aug-10 05:50N 48°37' W 123°10'0 0.0
2017-Aug-10 05:23N 48°37' W 123°10'0 0.0
2017-Aug-10 04:59N 48°37' W 123°10'0 0.0
2017-Aug-10 04:14N 48°37' W 123°10'0 0.0
2017-Aug-10 03:59N 48°37' W 123°10'0 0.0
2017-Aug-10 03:26N 48°37' W 123°10'0 0.0
2017-Aug-10 02:53N 48°37' W 123°10'0 0.0
2017-Aug-10 02:29N 48°37' W 123°10'0 0.0
2017-Aug-10 01:56N 48°37' W 123°10'0 0.0
2017-Aug-10 01:29N 48°37' W 123°10'0 0.0
2017-Aug-10 00:56N 48°37' W 123°10'0 0.0
2017-Aug-10 00:29N 48°37' W 123°10'0 0.0
2017-Aug-09 23:56N 48°37' W 123°10'0 0.0
2017-Aug-09 23:26N 48°37' W 123°10'0 0.0
2017-Aug-09 22:59N 48°37' W 123°10'0 0.0
2017-Aug-09 22:29N 48°37' W 123°10'0 0.1
2017-Aug-09 21:59N 48°37' W 123°10'0 0.1
2017-Aug-09 21:29N 48°37' W 123°10'0 0.0
2017-Aug-09 20:56N 48°37' W 123°10'0 0.0
2017-Aug-09 20:29N 48°37' W 123°10'0 0.0
2017-Aug-09 19:59N 48°37' W 123°10'0 0.0
2017-Aug-09 19:30N 48°37' W 123°10'0 0.8
2017-Aug-09 19:00N 48°37' W 123°10'2 3.4
2017-Aug-09 18:30N 48°38' W 123°12'3 4.8
2017-Aug-09 17:58N 48°39' W 123°08'4 9.2
2017-Aug-09 17:30N 48°40' W 123°02'5 9.7
2017-Aug-09 17:00N 48°44' W 122°57'3 0.2
2017-Aug-08 21:11N 48°46' W 122°54'2 4.8
2017-Aug-08 20:49N 48°46' W 122°51'0 0.6
2017-Aug-08 20:29N 48°46' W 122°51'1 1.4
2017-Aug-08 19:59N 48°46' W 122°51'1 2.8
2017-Aug-08 19:30N 48°44' W 122°51'1 0.8
2017-Aug-08 18:49N 48°44' W 122°51'3 2.9
2017-Aug-08 17:48N 48°42' W 122°48'3 6.0
2017-Aug-08 17:22N 48°40' W 122°45'2 5.9
2017-Aug-08 17:00N 48°38' W 122°46'3 7.1
2017-Aug-08 16:30N 48°35' W 122°49'3 5.7
2017-Aug-08 16:00N 48°38' W 122°51'1 1.8
2017-Aug-08 15:25N 48°39' W 122°52'0 0.0
2017-Aug-08 14:58N 48°39' W 122°52'0 0.0
2017-Aug-08 14:25N 48°39' W 122°52'0 0.0
2017-Aug-08 13:49N 48°39' W 122°52'0 0.0
2017-Aug-08 13:28N 48°39' W 122°52'0 0.0
2017-Aug-08 12:58N 48°39' W 122°52'0 0.0
2017-Aug-08 12:28N 48°39' W 122°52'0 0.0
2017-Aug-08 11:58N 48°39' W 122°52'0 0.0
2017-Aug-08 11:25N 48°39' W 122°52'0 0.0
2017-Aug-08 10:58N 48°39' W 122°52'0 0.0
2017-Aug-08 10:25N 48°39' W 122°52'0 0.0
2017-Aug-08 09:58N 48°39' W 122°52'0 0.0
2017-Aug-08 09:28N 48°39' W 122°52'0 0.0
2017-Aug-08 08:58N 48°39' W 122°52'0 0.0
2017-Aug-08 08:25N 48°39' W 122°52'0 0.1
2017-Aug-08 07:55N 48°39' W 122°52'0 0.0
2017-Aug-08 07:25N 48°39' W 122°52'0 0.1
2017-Aug-08 06:58N 48°39' W 122°52'0 0.0
2017-Aug-08 06:28N 48°39' W 122°52'0 0.0
2017-Aug-08 05:55N 48°39' W 122°52'0 0.0
2017-Aug-08 05:28N 48°39' W 122°52'0 0.1
2017-Aug-08 04:58N 48°39' W 122°52'0 0.1
2017-Aug-08 04:28N 48°39' W 122°52'0 0.0
2017-Aug-08 03:58N 48°39' W 122°52'0 0.1
2017-Aug-08 03:28N 48°39' W 122°52'0 0.1
2017-Aug-08 02:58N 48°39' W 122°52'0 0.0
2017-Aug-08 02:28N 48°39' W 122°52'0 0.0
2017-Aug-08 01:55N 48°39' W 122°52'0 0.0
2017-Aug-08 01:28N 48°39' W 122°52'0 0.0
2017-Aug-08 00:55N 48°39' W 122°52'0 0.0
2017-Aug-08 00:28N 48°39' W 122°52'0 0.0
2017-Aug-07 23:55N 48°39' W 122°52'0 0.0
2017-Aug-07 23:28N 48°39' W 122°52'0 0.0
2017-Aug-07 22:58N 48°39' W 122°52'0 0.0
2017-Aug-07 22:19N 48°39' W 122°52'0 0.0
2017-Aug-07 22:00N 48°39' W 122°52'1 1.1
2017-Aug-07 21:30N 48°38' W 122°53'1 2.4
2017-Aug-07 21:00N 48°37' W 122°52'1 1.8
2017-Aug-07 20:30N 48°37' W 122°51'0 1.0
2017-Aug-07 20:00N 48°36' W 122°50'0 0.9
2017-Aug-07 19:30N 48°36' W 122°51'1 1.4
2017-Aug-07 19:00N 48°36' W 122°52'1 1.4
2017-Aug-07 18:30N 48°35' W 122°53'1 2.9
2017-Aug-07 18:00N 48°35' W 122°55'1 1.4
2017-Aug-07 17:30N 48°35' W 122°56'0 0.5
2017-Aug-07 17:00N 48°35' W 122°56'0 0.0
2017-Aug-07 16:23N 48°35' W 122°56'0 0.0
2017-Aug-07 15:59N 48°35' W 122°56'0 0.0
2017-Aug-07 15:29N 48°35' W 122°56'0 0.1
2017-Aug-07 14:53N 48°35' W 122°56'0 0.0
2017-Aug-07 14:23N 48°35' W 122°56'0 0.1
2017-Aug-07 13:44N 48°35' W 122°56'0 0.0
2017-Aug-07 13:29N 48°35' W 122°56'0 0.0
2017-Aug-07 12:59N 48°35' W 122°56'0 0.0
2017-Aug-07 12:29N 48°35' W 122°56'0 0.0
2017-Aug-07 11:59N 48°35' W 122°56'0 0.0
2017-Aug-07 11:23N 48°35' W 122°56'0 0.0
2017-Aug-07 10:59N 48°35' W 122°56'0 0.0
2017-Aug-07 10:29N 48°35' W 122°56'0 0.0
2017-Aug-07 09:59N 48°35' W 122°56'0 0.0
2017-Aug-07 09:29N 48°35' W 122°56'0 0.0
2017-Aug-07 08:59N 48°35' W 122°56'0 0.0
2017-Aug-07 08:29N 48°35' W 122°56'0 0.0
2017-Aug-07 07:59N 48°35' W 122°56'0 0.0
2017-Aug-07 07:29N 48°35' W 122°56'0 0.0
2017-Aug-07 06:59N 48°35' W 122°56'0 0.0
2017-Aug-07 06:26N 48°35' W 122°56'0 0.0
2017-Aug-07 05:59N 48°35' W 122°56'0 0.0
2017-Aug-07 05:29N 48°35' W 122°56'0 0.0
2017-Aug-07 04:59N 48°35' W 122°56'0 0.0
2017-Aug-07 04:29N 48°35' W 122°56'0 0.0
2017-Aug-07 03:56N 48°35' W 122°56'0 0.0
2017-Aug-07 03:29N 48°35' W 122°56'0 0.1
2017-Aug-07 02:59N 48°35' W 122°56'0 0.0
2017-Aug-07 02:26N 48°35' W 122°56'0 0.1
2017-Aug-07 01:59N 48°35' W 122°56'0 0.0
2017-Aug-07 01:26N 48°35' W 122°56'0 0.0
2017-Aug-07 00:59N 48°35' W 122°56'0 0.1
2017-Aug-07 00:20N 48°35' W 122°56'0 0.1
2017-Aug-06 23:59N 48°35' W 122°56'0 0.1
2017-Aug-06 23:29N 48°35' W 122°56'0 0.0
2017-Aug-06 22:56N 48°35' W 122°56'0 0.0
2017-Aug-06 22:27N 48°35' W 122°56'1 2.9
2017-Aug-06 22:00N 48°35' W 122°54'1 1.8
2017-Aug-06 21:30N 48°34' W 122°54'3 5.8
2017-Aug-06 21:00N 48°33' W 122°58'2 3.5
2017-Aug-06 20:30N 48°32' W 123°01'0 0.2
2017-Aug-06 20:00N 48°32' W 123°01'0 0.0
2017-Aug-06 19:30N 48°32' W 123°01'0 0.0
2017-Aug-06 19:00N 48°32' W 123°01'0 0.0
2017-Aug-06 18:27N 48°32' W 123°01'0 0.0
2017-Aug-06 17:57N 48°32' W 123°01'0 0.0
2017-Aug-06 17:30N 48°32' W 123°01'0 0.0
2017-Aug-06 16:57N 48°32' W 123°01'0 0.0
2017-Aug-06 16:27N 48°32' W 123°01'0 0.0
2017-Aug-06 16:00N 48°32' W 123°01'0 0.0
2017-Aug-06 15:30N 48°32' W 123°01'0 0.0
2017-Aug-06 15:00N 48°32' W 123°01'0 0.0
2017-Aug-06 14:30N 48°32' W 123°01'0 0.0
2017-Aug-06 14:00N 48°32' W 123°01'0 0.0
2017-Aug-06 13:30N 48°32' W 123°01'0 0.0
2017-Aug-06 13:00N 48°32' W 123°01'0 0.0
2017-Aug-06 12:30N 48°32' W 123°01'0 0.0
2017-Aug-06 12:00N 48°32' W 123°01'0 0.0
2017-Aug-06 11:30N 48°32' W 123°01'0 0.0
2017-Aug-06 11:00N 48°32' W 123°01'0 0.0
2017-Aug-06 10:30N 48°32' W 123°01'0 0.0
2017-Aug-06 09:54N 48°32' W 123°01'0 0.0
2017-Aug-06 09:30N 48°32' W 123°01'  
Track history (hours):
 
Tides and Currents Weather Stations Pressure Air Temp Water Temp Dewpoint Dewpoint Depression Visibility Wind Speed Wind Dir Waves Ship Positions

SSS Odyssey

Ship's website: http://www.sssodyssey.org

Owner: Pacific Harbors Council, BSA, TACOMA, WA. More information available from US FCC via Universal Licensing System and Coast Guard Vessel Documentation Center.

Last reported at 2017-Aug-16 09:26 UTC. Time now 2017-Aug-17 03:47 UTC.
Position N 48°46' W 122°54'.

Length 30 m; draft 4 m.

Type: Ship. MMSI: 367404790.

Date/timePositionNaut miles runAvg speedWind from/ knotsBaromVisibWave heightAir tempDewpointWater temp
2017-Aug-16 09:26N 48°46' W 122°54'0 0.0
2017-Aug-15 22:30N 48°46' W 122°54'1 2.1
2017-Aug-15 21:56N 48°44' W 122°54'2 5.5
2017-Aug-15 21:30N 48°43' W 122°57'3 5.3
2017-Aug-15 21:00N 48°41' W 122°60'2 4.0
2017-Aug-15 20:30N 48°40' W 123°02'1 2.1
2017-Aug-15 20:00N 48°39' W 123°03'0 0.6
2017-Aug-15 19:30N 48°39' W 123°03'0 0.8
2017-Aug-15 19:00N 48°39' W 123°03'0 0.6
2017-Aug-15 18:29N 48°38' W 123°04'0 1.0
2017-Aug-15 18:00N 48°38' W 123°05'2 3.3
2017-Aug-15 17:30N 48°38' W 123°07'2 4.6
2017-Aug-15 17:00N 48°37' W 123°10'1 1.2
2017-Aug-15 16:30N 48°37' W 123°09'0 0.1
2017-Aug-15 16:00N 48°37' W 123°09'0 0.5
2017-Aug-15 15:30N 48°37' W 123°10'0 0.4
2017-Aug-15 14:58N 48°37' W 123°10'0 0.0
2017-Aug-15 14:22N 48°37' W 123°10'0 0.0
2017-Aug-15 13:58N 48°37' W 123°10'0 0.0
2017-Aug-15 13:25N 48°37' W 123°10'0 0.0
2017-Aug-15 12:58N 48°37' W 123°10'0 0.0
2017-Aug-15 12:28N 48°37' W 123°10'0 0.0
2017-Aug-15 11:55N 48°37' W 123°10'0 0.0
2017-Aug-15 11:25N 48°37' W 123°10'0 0.0
2017-Aug-15 10:58N 48°37' W 123°10'0 0.0
2017-Aug-15 10:28N 48°37' W 123°10'0 0.0
2017-Aug-15 09:49N 48°37' W 123°10'0 0.0
2017-Aug-15 09:28N 48°37' W 123°10'0 0.0
2017-Aug-15 08:58N 48°37' W 123°10'0 0.0
2017-Aug-15 08:25N 48°37' W 123°10'0 0.0
2017-Aug-15 07:58N 48°37' W 123°10'0 0.0
2017-Aug-15 07:19N 48°37' W 123°10'0 0.0
2017-Aug-15 06:52N 48°37' W 123°10'0 0.0
2017-Aug-15 06:23N 48°37' W 123°10'0 0.0
2017-Aug-15 05:58N 48°37' W 123°10'0 0.0
2017-Aug-15 05:26N 48°37' W 123°10'0 0.0
2017-Aug-15 04:55N 48°37' W 123°10'0 0.0
2017-Aug-15 04:13N 48°37' W 123°10'0 0.0
2017-Aug-15 03:55N 48°37' W 123°10'0 0.0
2017-Aug-15 03:25N 48°37' W 123°10'0 0.0
2017-Aug-15 02:58N 48°37' W 123°10'0 0.0
2017-Aug-15 02:25N 48°37' W 123°10'0 0.0
2017-Aug-15 01:58N 48°37' W 123°10'0 0.0
2017-Aug-15 01:22N 48°37' W 123°10'0 0.0
2017-Aug-15 00:55N 48°37' W 123°10'0 0.0
2017-Aug-15 00:28N 48°37' W 123°10'0 0.0
2017-Aug-14 23:58N 48°37' W 123°10'0 0.0
2017-Aug-14 23:28N 48°37' W 123°10'0 0.0
2017-Aug-14 22:58N 48°37' W 123°10'0 0.0
2017-Aug-14 22:28N 48°37' W 123°10'0 0.0
2017-Aug-14 21:58N 48°37' W 123°10'0 0.9
2017-Aug-14 21:30N 48°37' W 123°10'2 3.6
2017-Aug-14 21:00N 48°36' W 123°12'2 3.9
2017-Aug-14 20:30N 48°34' W 123°12'3 5.2
2017-Aug-14 20:00N 48°31' W 123°12'1 1.6
2017-Aug-14 19:30N 48°30' W 123°12'2 3.5
2017-Aug-14 19:00N 48°32' W 123°11'2 4.3
2017-Aug-14 18:30N 48°34' W 123°13'1 2.5
2017-Aug-14 18:00N 48°35' W 123°14'1 2.2
2017-Aug-14 17:30N 48°36' W 123°13'1 2.2
2017-Aug-14 17:00N 48°37' W 123°12'2 4.0
2017-Aug-14 16:30N 48°39' W 123°12'2 3.0
2017-Aug-14 15:58N 48°40' W 123°11'0 0.2
2017-Aug-14 14:32N 48°40' W 123°12'0 0.1
2017-Aug-14 14:26N 48°40' W 123°12'0 0.0
2017-Aug-14 13:45N 48°40' W 123°12'0 0.0
2017-Aug-14 13:09N 48°40' W 123°12'0 0.0
2017-Aug-14 12:39N 48°40' W 123°12'0 0.0
2017-Aug-14 10:33N 48°40' W 123°12'0 0.0
2017-Aug-14 09:06N 48°40' W 123°12'0 0.0
2017-Aug-14 08:51N 48°40' W 123°12'0 0.0
2017-Aug-14 08:27N 48°40' W 123°12'0 0.0
2017-Aug-14 01:33N 48°40' W 123°12'0 0.0
2017-Aug-13 23:45N 48°40' W 123°12'0 0.0
2017-Aug-13 23:27N 48°40' W 123°12'0 0.0
2017-Aug-13 22:45N 48°40' W 123°12'0 0.0
2017-Aug-13 22:27N 48°40' W 123°12'0 0.0
2017-Aug-13 21:57N 48°40' W 123°12'2 5.3
2017-Aug-13 21:31N 48°39' W 123°09'4 7.1
2017-Aug-13 21:01N 48°37' W 123°05'3 6.2
2017-Aug-13 20:30N 48°35' W 123°02'2 4.7
2017-Aug-13 20:01N 48°32' W 123°01'0 0.3
2017-Aug-13 19:28N 48°32' W 123°01'0 0.0
2017-Aug-13 18:58N 48°32' W 123°01'0 0.0
2017-Aug-13 18:28N 48°32' W 123°01'0 0.0
2017-Aug-13 17:55N 48°32' W 123°01'0 0.0
2017-Aug-13 17:28N 48°32' W 123°01'0 0.0
2017-Aug-13 16:58N 48°32' W 123°01'0 0.0
2017-Aug-13 16:28N 48°32' W 123°01'0 0.0
2017-Aug-13 15:58N 48°32' W 123°01'0 0.0
2017-Aug-13 15:28N 48°32' W 123°01'0 0.0
2017-Aug-13 14:58N 48°32' W 123°01'0 0.0
2017-Aug-13 14:28N 48°32' W 123°01'0 0.0
2017-Aug-13 13:58N 48°32' W 123°01'0 0.0
2017-Aug-13 13:25N 48°32' W 123°01'0 0.0
2017-Aug-13 12:58N 48°32' W 123°01'0 0.0
2017-Aug-13 12:28N 48°32' W 123°01'0 0.0
2017-Aug-13 11:58N 48°32' W 123°01'0 0.0
2017-Aug-13 11:25N 48°32' W 123°01'0 0.0
2017-Aug-13 10:58N 48°32' W 123°01'0 0.0
2017-Aug-13 10:28N 48°32' W 123°01'0 0.0
2017-Aug-13 09:58N 48°32' W 123°01'0 0.0
2017-Aug-13 09:28N 48°32' W 123°01'0 0.0
2017-Aug-13 08:55N 48°32' W 123°01'0 0.0
2017-Aug-13 08:28N 48°32' W 123°01'0 0.0
2017-Aug-13 07:58N 48°32' W 123°01'0 0.0
2017-Aug-13 07:28N 48°32' W 123°01'0 0.0
2017-Aug-13 06:58N 48°32' W 123°01'0 0.0
2017-Aug-13 06:25N 48°32' W 123°01'0 0.0
2017-Aug-13 05:55N 48°32' W 123°01'0 0.0
2017-Aug-13 05:28N 48°32' W 123°01'0 0.0
2017-Aug-13 04:58N 48°32' W 123°01'0 0.0
2017-Aug-13 04:28N 48°32' W 123°01'0 0.0
2017-Aug-13 03:58N 48°32' W 123°01'0 0.0
2017-Aug-13 03:28N 48°32' W 123°01'0 0.0
2017-Aug-13 02:58N 48°32' W 123°01'0 0.0
2017-Aug-13 02:28N 48°32' W 123°01'0 0.0
2017-Aug-13 01:55N 48°32' W 123°01'0 0.0
2017-Aug-13 01:28N 48°32' W 123°01'0 0.0
2017-Aug-13 00:58N 48°32' W 123°01'0 0.0
2017-Aug-13 00:28N 48°32' W 123°01'0 0.0
2017-Aug-12 23:58N 48°32' W 123°01'0 0.0
2017-Aug-12 23:28N 48°32' W 123°01'0 0.0
2017-Aug-12 22:58N 48°32' W 123°01'0 0.0
2017-Aug-12 22:28N 48°32' W 123°01'0 0.0
2017-Aug-12 21:58N 48°32' W 123°01'0 0.0
2017-Aug-12 21:28N 48°32' W 123°01'0 0.0
2017-Aug-12 20:52N 48°32' W 123°01'0 0.0
2017-Aug-12 20:28N 48°32' W 123°01'0 0.0
2017-Aug-12 19:58N 48°32' W 123°01'0 0.0
2017-Aug-12 19:25N 48°32' W 123°01'0 0.0
2017-Aug-12 18:58N 48°32' W 123°01'0 0.0
2017-Aug-12 18:28N 48°32' W 123°01'0 0.0
2017-Aug-12 17:58N 48°32' W 123°01'0 0.1
2017-Aug-12 17:30N 48°32' W 123°01'0 0.1
2017-Aug-12 16:59N 48°32' W 123°01'0 0.0
2017-Aug-12 16:30N 48°32' W 123°01'0 0.0
2017-Aug-12 16:00N 48°32' W 123°01'1 1.3
2017-Aug-12 15:30N 48°33' W 123°00'3 6.8
2017-Aug-12 15:00N 48°36' W 123°03'2 4.2
2017-Aug-12 14:29N 48°37' W 123°00'0 0.0
2017-Aug-12 13:59N 48°37' W 123°00'0 0.0
2017-Aug-12 13:29N 48°37' W 123°00'0 0.0
2017-Aug-12 12:59N 48°37' W 123°00'0 0.0
2017-Aug-12 12:29N 48°37' W 123°00'0 0.0
2017-Aug-12 11:59N 48°37' W 123°00'0 0.0
2017-Aug-12 11:29N 48°37' W 123°00'0 0.0
2017-Aug-12 10:59N 48°37' W 123°00'0 0.0
2017-Aug-12 10:23N 48°37' W 123°00'0 0.0
2017-Aug-12 09:59N 48°37' W 123°00'0 0.0
2017-Aug-12 09:29N 48°37' W 123°00'0 0.0
2017-Aug-12 08:59N 48°37' W 123°00'0 0.0
2017-Aug-12 08:29N 48°37' W 123°00'0 0.0
2017-Aug-12 07:59N 48°37' W 123°00'0 0.0
2017-Aug-12 07:26N 48°37' W 123°00'0 0.0
2017-Aug-12 06:59N 48°37' W 123°00'0 0.0
2017-Aug-12 06:29N 48°37' W 123°00'0 0.0
2017-Aug-12 05:59N 48°37' W 123°00'0 0.0
2017-Aug-12 05:29N 48°37' W 123°00'0 0.0
2017-Aug-12 04:59N 48°37' W 123°00'0 0.0
2017-Aug-12 04:29N 48°37' W 123°00'0 0.0
2017-Aug-12 03:59N 48°37' W 123°00'0 0.0
2017-Aug-12 03:20N 48°37' W 123°00'0 0.0
2017-Aug-12 02:56N 48°37' W 123°00'0 0.0
2017-Aug-12 02:29N 48°37' W 123°00'0 0.0
2017-Aug-12 01:53N 48°37' W 123°00'0 0.0
2017-Aug-12 01:29N 48°37' W 123°00'0 0.0
2017-Aug-12 00:59N 48°37' W 123°00'0 0.0
2017-Aug-12 00:28N 48°37' W 123°00'1 2.2
2017-Aug-12 00:01N 48°36' W 123°02'3 5.0
2017-Aug-11 23:31N 48°38' W 123°05'2 4.8
2017-Aug-11 23:01N 48°40' W 123°07'1 2.0
2017-Aug-11 22:31N 48°41' W 123°07'1 1.9
2017-Aug-11 22:01N 48°42' W 123°08'2 3.1
2017-Aug-11 21:30N 48°41' W 123°10'2 4.2
2017-Aug-11 21:00N 48°41' W 123°13'2 4.7
2017-Aug-11 20:31N 48°39' W 123°11'1 1.5
2017-Aug-11 19:58N 48°40' W 123°11'0 0.0
2017-Aug-11 19:25N 48°40' W 123°11'0 0.0
2017-Aug-11 17:13N 48°40' W 123°11'0 0.0
2017-Aug-11 16:55N 48°40' W 123°11'0 0.0
2017-Aug-11 16:19N 48°40' W 123°11'0 0.0
2017-Aug-11 15:52N 48°40' W 123°11'0 0.0
2017-Aug-11 15:25N 48°40' W 123°11'0 0.0
2017-Aug-11 14:52N 48°40' W 123°11'0 0.1
2017-Aug-11 14:28N 48°40' W 123°11'0 0.0
2017-Aug-11 13:25N 48°40' W 123°11'0 0.1
2017-Aug-11 12:52N 48°40' W 123°11'0 0.1
2017-Aug-11 12:28N 48°40' W 123°11'0 0.0
2017-Aug-11 11:46N 48°40' W 123°11'0 0.0
2017-Aug-11 11:25N 48°40' W 123°11'0 0.0
2017-Aug-11 10:55N 48°40' W 123°11'0 0.0
2017-Aug-11 10:07N 48°40' W 123°11'0 0.0
2017-Aug-11 09:55N 48°40' W 123°11'0 0.0
2017-Aug-11 09:28N 48°40' W 123°11'0 0.0
2017-Aug-11 08:58N 48°40' W 123°11'0 0.0
2017-Aug-11 08:28N 48°40' W 123°11'0 0.0
2017-Aug-11 07:49N 48°40' W 123°11'0 0.0
2017-Aug-11 06:31N 48°40' W 123°11'0 0.0
2017-Aug-11 04:13N 48°40' W 123°11'0 0.0
2017-Aug-11 03:53N 48°40' W 123°11'0 0.0
2017-Aug-10 23:26N 48°40' W 123°11'1 1.8
2017-Aug-10 23:00N 48°40' W 123°11'1 2.5
2017-Aug-10 22:31N 48°39' W 123°12'2 3.2
2017-Aug-10 22:00N 48°37' W 123°12'4 7.8
2017-Aug-10 21:30N 48°33' W 123°11'3 6.5
2017-Aug-10 21:00N 48°30' W 123°09'3 5.3
2017-Aug-10 20:30N 48°28' W 123°06'2 3.5
2017-Aug-10 20:00N 48°27' W 123°04'0 0.8
2017-Aug-10 19:30N 48°27' W 123°05'0 0.8
2017-Aug-10 19:00N 48°27' W 123°04'1 1.1
2017-Aug-10 18:30N 48°27' W 123°03'1 2.8
2017-Aug-10 18:00N 48°27' W 123°05'2 4.2
2017-Aug-10 17:30N 48°29' W 123°07'2 4.5
2017-Aug-10 17:00N 48°29' W 123°10'2 3.3
2017-Aug-10 16:30N 48°30' W 123°12'2 4.8
2017-Aug-10 16:00N 48°32' W 123°10'3 6.3
2017-Aug-10 15:30N 48°36' W 123°11'1 2.2
2017-Aug-10 14:59N 48°37' W 123°10'0 0.0
2017-Aug-10 14:29N 48°37' W 123°10'0 0.0
2017-Aug-10 13:56N 48°37' W 123°10'0 0.0
2017-Aug-10 13:26N 48°37' W 123°10'0 0.0
2017-Aug-10 12:59N 48°37' W 123°10'0 0.0
2017-Aug-10 12:26N 48°37' W 123°10'0 0.0
2017-Aug-10 11:59N 48°37' W 123°10'0 0.0
2017-Aug-10 11:29N 48°37' W 123°10'0 0.0
2017-Aug-10 10:50N 48°37' W 123°10'0 0.0
2017-Aug-10 10:26N 48°37' W 123°10'0 0.0
2017-Aug-10 09:59N 48°37' W 123°10'0 0.0
2017-Aug-10 09:26N 48°37' W 123°10'0 0.0
2017-Aug-10 08:59N 48°37' W 123°10'0 0.0
2017-Aug-10 08:29N 48°37' W 123°10'0 0.0
2017-Aug-10 07:59N 48°37' W 123°10'0 0.0
2017-Aug-10 07:23N 48°37' W 123°10'0 0.0
2017-Aug-10 06:59N 48°37' W 123°10'0 0.0
2017-Aug-10 06:11N 48°37' W 123°10'0 0.0
2017-Aug-10 05:50N 48°37' W 123°10'0 0.0
2017-Aug-10 05:23N 48°37' W 123°10'0 0.0
2017-Aug-10 04:59N 48°37' W 123°10'0 0.0
2017-Aug-10 04:14N 48°37' W 123°10'0 0.0
2017-Aug-10 03:59N 48°37' W 123°10'0 0.0
2017-Aug-10 03:26N 48°37' W 123°10'0 0.0
2017-Aug-10 02:53N 48°37' W 123°10'0 0.0
2017-Aug-10 02:29N 48°37' W 123°10'0 0.0
2017-Aug-10 01:56N 48°37' W 123°10'0 0.0
2017-Aug-10 01:29N 48°37' W 123°10'0 0.0
2017-Aug-10 00:56N 48°37' W 123°10'0 0.0
2017-Aug-10 00:29N 48°37' W 123°10'0 0.0
2017-Aug-09 23:56N 48°37' W 123°10'0 0.0
2017-Aug-09 23:26N 48°37' W 123°10'0 0.0
2017-Aug-09 22:59N 48°37' W 123°10'0 0.0
2017-Aug-09 22:29N 48°37' W 123°10'0 0.1
2017-Aug-09 21:59N 48°37' W 123°10'0 0.1
2017-Aug-09 21:29N 48°37' W 123°10'0 0.0
2017-Aug-09 20:56N 48°37' W 123°10'0 0.0
2017-Aug-09 20:29N 48°37' W 123°10'0 0.0
2017-Aug-09 19:59N 48°37' W 123°10'0 0.0
2017-Aug-09 19:30N 48°37' W 123°10'0 0.8
2017-Aug-09 19:00N 48°37' W 123°10'2 3.4
2017-Aug-09 18:30N 48°38' W 123°12'3 4.8
2017-Aug-09 17:58N 48°39' W 123°08'4 9.2
2017-Aug-09 17:30N 48°40' W 123°02'5 9.7
2017-Aug-09 17:00N 48°44' W 122°57'3 0.2
2017-Aug-08 21:11N 48°46' W 122°54'2 4.8
2017-Aug-08 20:49N 48°46' W 122°51'0 0.6
2017-Aug-08 20:29N 48°46' W 122°51'1 1.4
2017-Aug-08 19:59N 48°46' W 122°51'1 2.8
2017-Aug-08 19:30N 48°44' W 122°51'1 0.8
2017-Aug-08 18:49N 48°44' W 122°51'3 2.9
2017-Aug-08 17:48N 48°42' W 122°48'3 6.0
2017-Aug-08 17:22N 48°40' W 122°45'2 5.9
2017-Aug-08 17:00N 48°38' W 122°46'3 7.1
2017-Aug-08 16:30N 48°35' W 122°49'3 5.7
2017-Aug-08 16:00N 48°38' W 122°51'1 1.8
2017-Aug-08 15:25N 48°39' W 122°52'0 0.0
2017-Aug-08 14:58N 48°39' W 122°52'0 0.0
2017-Aug-08 14:25N 48°39' W 122°52'0 0.0
2017-Aug-08 13:49N 48°39' W 122°52'0 0.0
2017-Aug-08 13:28N 48°39' W 122°52'0 0.0
2017-Aug-08 12:58N 48°39' W 122°52'0 0.0
2017-Aug-08 12:28N 48°39' W 122°52'0 0.0
2017-Aug-08 11:58N 48°39' W 122°52'0 0.0
2017-Aug-08 11:25N 48°39' W 122°52'0 0.0
2017-Aug-08 10:58N 48°39' W 122°52'0 0.0
2017-Aug-08 10:25N 48°39' W 122°52'0 0.0
2017-Aug-08 09:58N 48°39' W 122°52'0 0.0
2017-Aug-08 09:28N 48°39' W 122°52'0 0.0
2017-Aug-08 08:58N 48°39' W 122°52'0 0.0
2017-Aug-08 08:25N 48°39' W 122°52'0 0.1
2017-Aug-08 07:55N 48°39' W 122°52'0 0.0
2017-Aug-08 07:25N 48°39' W 122°52'0 0.1
2017-Aug-08 06:58N 48°39' W 122°52'0 0.0
2017-Aug-08 06:28N 48°39' W 122°52'0 0.0
2017-Aug-08 05:55N 48°39' W 122°52'0 0.0
2017-Aug-08 05:28N 48°39' W 122°52'0 0.1
2017-Aug-08 04:58N 48°39' W 122°52'0 0.1
2017-Aug-08 04:28N 48°39' W 122°52'0 0.0
2017-Aug-08 03:58N 48°39' W 122°52'0 0.1
2017-Aug-08 03:28N 48°39' W 122°52'0 0.1
2017-Aug-08 02:58N 48°39' W 122°52'0 0.0
2017-Aug-08 02:28N 48°39' W 122°52'0 0.0
2017-Aug-08 01:55N 48°39' W 122°52'0 0.0
2017-Aug-08 01:28N 48°39' W 122°52'0 0.0
2017-Aug-08 00:55N 48°39' W 122°52'0 0.0
2017-Aug-08 00:28N 48°39' W 122°52'0 0.0
2017-Aug-07 23:55N 48°39' W 122°52'0 0.0
2017-Aug-07 23:28N 48°39' W 122°52'0 0.0
2017-Aug-07 22:58N 48°39' W 122°52'0 0.0
2017-Aug-07 22:19N 48°39' W 122°52'0 0.0
2017-Aug-07 22:00N 48°39' W 122°52'1 1.1
2017-Aug-07 21:30N 48°38' W 122°53'1 2.4
2017-Aug-07 21:00N 48°37' W 122°52'1 1.8
2017-Aug-07 20:30N 48°37' W 122°51'0 1.0
2017-Aug-07 20:00N 48°36' W 122°50'0 0.9
2017-Aug-07 19:30N 48°36' W 122°51'1 1.4
2017-Aug-07 19:00N 48°36' W 122°52'1 1.4
2017-Aug-07 18:30N 48°35' W 122°53'1 2.9
2017-Aug-07 18:00N 48°35' W 122°55'1 1.4
2017-Aug-07 17:30N 48°35' W 122°56'0 0.5
2017-Aug-07 17:00N 48°35' W 122°56'0 0.0
2017-Aug-07 16:23N 48°35' W 122°56'0 0.0
2017-Aug-07 15:59N 48°35' W 122°56'0 0.0
2017-Aug-07 15:29N 48°35' W 122°56'0 0.1
2017-Aug-07 14:53N 48°35' W 122°56'0 0.0
2017-Aug-07 14:23N 48°35' W 122°56'0 0.1
2017-Aug-07 13:44N 48°35' W 122°56'0 0.0
2017-Aug-07 13:29N 48°35' W 122°56'0 0.0
2017-Aug-07 12:59N 48°35' W 122°56'0 0.0
2017-Aug-07 12:29N 48°35' W 122°56'0 0.0
2017-Aug-07 11:59N 48°35' W 122°56'0 0.0
2017-Aug-07 11:23N 48°35' W 122°56'0 0.0
2017-Aug-07 10:59N 48°35' W 122°56'0 0.0
2017-Aug-07 10:29N 48°35' W 122°56'0 0.0
2017-Aug-07 09:59N 48°35' W 122°56'0 0.0
2017-Aug-07 09:29N 48°35' W 122°56'0 0.0
2017-Aug-07 08:59N 48°35' W 122°56'0 0.0
2017-Aug-07 08:29N 48°35' W 122°56'0 0.0
2017-Aug-07 07:59N 48°35' W 122°56'0 0.0
2017-Aug-07 07:29N 48°35' W 122°56'0 0.0
2017-Aug-07 06:59N 48°35' W 122°56'0 0.0
2017-Aug-07 06:26N 48°35' W 122°56'0 0.0
2017-Aug-07 05:59N 48°35' W 122°56'0 0.0
2017-Aug-07 05:29N 48°35' W 122°56'0 0.0
2017-Aug-07 04:59N 48°35' W 122°56'0 0.0
2017-Aug-07 04:29N 48°35' W 122°56'0 0.0
2017-Aug-07 03:56N 48°35' W 122°56'0 0.0
2017-Aug-07 03:29N 48°35' W 122°56'0 0.1
2017-Aug-07 02:59N 48°35' W 122°56'0 0.0
2017-Aug-07 02:26N 48°35' W 122°56'0 0.1
2017-Aug-07 01:59N 48°35' W 122°56'0 0.0
2017-Aug-07 01:26N 48°35' W 122°56'0 0.0
2017-Aug-07 00:59N 48°35' W 122°56'0 0.1
2017-Aug-07 00:20N 48°35' W 122°56'0 0.1
2017-Aug-06 23:59N 48°35' W 122°56'0 0.1
2017-Aug-06 23:29N 48°35' W 122°56'0 0.0
2017-Aug-06 22:56N 48°35' W 122°56'0 0.0
2017-Aug-06 22:27N 48°35' W 122°56'1 2.9
2017-Aug-06 22:00N 48°35' W 122°54'1 1.8
2017-Aug-06 21:30N 48°34' W 122°54'3 5.8
2017-Aug-06 21:00N 48°33' W 122°58'2 3.5
2017-Aug-06 20:30N 48°32' W 123°01'0 0.2
2017-Aug-06 20:00N 48°32' W 123°01'0 0.0
2017-Aug-06 19:30N 48°32' W 123°01'0 0.0
2017-Aug-06 19:00N 48°32' W 123°01'0 0.0
2017-Aug-06 18:27N 48°32' W 123°01'0 0.0
2017-Aug-06 17:57N 48°32' W 123°01'0 0.0
2017-Aug-06 17:30N 48°32' W 123°01'0 0.0
2017-Aug-06 16:57N 48°32' W 123°01'0 0.0
2017-Aug-06 16:27N 48°32' W 123°01'0 0.0
2017-Aug-06 16:00N 48°32' W 123°01'0 0.0
2017-Aug-06 15:30N 48°32' W 123°01'0 0.0
2017-Aug-06 15:00N 48°32' W 123°01'0 0.0
2017-Aug-06 14:30N 48°32' W 123°01'0 0.0
2017-Aug-06 14:00N 48°32' W 123°01'0 0.0
2017-Aug-06 13:30N 48°32' W 123°01'0 0.0
2017-Aug-06 13:00N 48°32' W 123°01'0 0.0
2017-Aug-06 12:30N 48°32' W 123°01'0 0.0
2017-Aug-06 12:00N 48°32' W 123°01'0 0.0
2017-Aug-06 11:30N 48°32' W 123°01'0 0.0
2017-Aug-06 11:00N 48°32' W 123°01'0 0.0
2017-Aug-06 10:30N 48°32' W 123°01'0 0.0
2017-Aug-06 09:54N 48°32' W 123°01'0 0.0
2017-Aug-06 09:30N 48°32' W 123°01'  

Dump ship's entire track history